Time;durP1;ratioP1;P1;durP2;ratioP2;P2;SDS_P1;SDS_P2;PMS_P1;PMS_P2;Temp;Humidity;BMP_temperature;BMP_pressure;BME280_temperature;BME280_humidity;BME280_pressure;Samples;Min_cycle;Max_cycle;Signal;HPM_P1;HPM_P2
2023/10/05 00:02:20;;;;;;;40.55;26.35;;;17.40;99.90;;;;;;4935138;29;20032;-85
2023/10/05 00:04:46;;;;;;;41.75;25.23;;;17.40;99.90;;;;;;4936502;29;20036;-86
2023/10/05 00:07:49;;;;;;;39.63;26.75;;;17.40;99.90;;;;;;4919635;29;20063;-86
2023/10/05 00:10:11;;;;;;;42.95;26.73;;;17.30;99.90;;;;;;4950490;29;20059;-87
2023/10/05 00:12:38;;;;;;;44.08;25.52;;;17.30;99.90;;;;;;4919519;29;20086;-86
2023/10/05 00:17:38;;;;;;;39.17;26.23;;;17.10;99.90;;;;;;4936180;29;20035;-88
2023/10/05 00:20:21;;;;;;;37.42;25.20;;;17.10;99.90;;;;;;4938637;29;20035;-87
2023/10/05 00:22:50;;;;;;;39.55;25.10;;;17.10;99.90;;;;;;4923221;29;20036;-87
2023/10/05 00:25:17;;;;;;;44.72;26.52;;;17.10;99.90;;;;;;4923250;29;20027;-87
2023/10/05 00:27:44;;;;;;;38.03;25.83;;;17.10;99.90;;;;;;4923074;29;20501;-87
2023/10/05 00:30:16;;;;;;;40.83;25.45;;;17.10;99.90;;;;;;4919690;29;20024;-87
2023/10/05 00:32:47;;;;;;;37.03;25.38;;;17.10;99.90;;;;;;4919628;29;20043;-87
2023/10/05 00:37:45;;;;;;;38.22;25.25;;;17.10;99.90;;;;;;4919153;29;20028;-86
2023/10/05 00:40:26;;;;;;;33.90;24.60;;;17.00;99.90;;;;;;4919142;29;20513;-84
2023/10/05 00:42:55;;;;;;;44.83;25.88;;;16.90;99.90;;;;;;4918755;29;20036;-84
2023/10/05 00:45:27;;;;;;;41.53;24.80;;;16.90;99.90;;;;;;4934591;29;20508;-84
2023/10/05 00:48:01;;;;;;;37.67;25.90;;;16.90;99.90;;;;;;4934498;29;20032;-84
2023/10/05 00:50:28;;;;;;;42.70;25.20;;;16.80;99.90;;;;;;4918667;29;20035;-84
2023/10/05 00:52:55;;;;;;;35.58;25.25;;;16.70;99.90;;;;;;4934321;29;20036;-84
2023/10/05 00:55:22;;;;;;;39.50;25.67;;;16.70;99.90;;;;;;4934246;29;20032;-84
2023/10/05 00:57:49;;;;;;;40.25;26.35;;;16.60;99.90;;;;;;4934145;29;20540;-83
2023/10/05 01:00:27;;;;;;;37.85;25.80;;;16.60;99.90;;;;;;4921288;29;20485;-83
2023/10/05 01:03:21;;;;;;;39.35;25.95;;;16.60;99.90;;;;;;4921637;29;20054;-84
2023/10/05 01:05:51;;;;;;;43.47;27.17;;;16.50;99.90;;;;;;4921496;29;20035;-83
2023/10/05 01:08:23;;;;;;;43.10;28.23;;;16.50;99.90;;;;;;4921473;29;20035;-83
2023/10/05 01:10:54;;;;;;;43.28;27.20;;;16.50;99.90;;;;;;4937350;29;20031;-84
2023/10/05 01:13:28;;;;;;;47.72;28.48;;;16.50;99.90;;;;;;4921327;29;20039;-84
2023/10/05 01:16:03;;;;;;;42.78;27.50;;;16.50;99.90;;;;;;4937054;29;20397;-84
2023/10/05 01:18:30;;;;;;;46.53;28.42;;;16.50;99.90;;;;;;4937259;29;20106;-84
2023/10/05 01:21:03;;;;;;;44.63;27.23;;;16.50;99.90;;;;;;4935666;29;20040;-84
2023/10/05 01:23:37;;;;;;;44.13;28.27;;;16.50;99.90;;;;;;4921211;29;20143;-84
2023/10/05 01:26:10;;;;;;;43.22;27.55;;;16.60;99.90;;;;;;4936803;29;20035;-83
2023/10/05 01:28:41;;;;;;;43.95;26.10;;;16.50;99.90;;;;;;4920874;29;20028;-83
2023/10/05 01:31:21;;;;;;;38.78;25.20;;;16.50;99.90;;;;;;4920954;29;20520;-84
2023/10/05 01:33:51;;;;;;;41.22;25.23;;;16.50;99.90;;;;;;4921084;29;20035;-83
2023/10/05 01:36:22;;;;;;;42.28;25.95;;;16.50;99.90;;;;;;4920895;29;20123;-84
2023/10/05 01:38:49;;;;;;;39.47;25.10;;;16.50;99.90;;;;;;4936573;29;20059;-83
2023/10/05 01:41:20;;;;;;;40.13;24.90;;;16.50;99.90;;;;;;4917584;29;20147;-83
2023/10/05 01:43:51;;;;;;;40.60;25.20;;;16.40;99.90;;;;;;4917766;29;20237;-83
2023/10/05 01:46:23;;;;;;;39.40;26.98;;;16.30;99.90;;;;;;4917519;29;20087;-83
2023/10/05 01:48:51;;;;;;;40.63;25.35;;;16.20;99.90;;;;;;4933287;29;20028;-84
2023/10/05 01:51:28;;;;;;;39.90;26.75;;;16.20;99.90;;;;;;4936168;29;20023;-83
2023/10/05 01:54:11;;;;;;;42.95;26.67;;;16.20;99.90;;;;;;4920453;29;20066;-84
2023/10/05 01:56:47;;;;;;;39.65;25.98;;;16.20;99.90;;;;;;4920724;29;20032;-83
2023/10/05 01:59:14;;;;;;;41.25;25.77;;;16.20;99.90;;;;;;4920282;29;20048;-83
2023/10/05 02:01:41;;;;;;;44.03;26.88;;;16.10;99.90;;;;;;4917386;29;20088;-83
2023/10/05 02:04:07;;;;;;;39.20;26.00;;;16.10;99.90;;;;;;4917249;29;20056;-83
2023/10/05 02:06:40;;;;;;;41.50;26.33;;;16.10;99.90;;;;;;4917289;29;20032;-84
2023/10/05 02:09:10;;;;;;;40.80;26.17;;;16.20;99.90;;;;;;4917384;29;20032;-83
2023/10/05 02:11:40;;;;;;;39.92;26.20;;;16.20;99.90;;;;;;4927379;29;20542;-84
2023/10/05 02:14:12;;;;;;;43.70;26.08;;;16.20;99.90;;;;;;4917373;29;20036;-83
2023/10/05 02:16:38;;;;;;;40.08;26.27;;;16.20;99.90;;;;;;4917053;29;20489;-82
2023/10/05 02:19:08;;;;;;;36.47;23.88;;;16.20;99.90;;;;;;4932749;29;20044;-84
2023/10/05 02:21:38;;;;;;;41.20;25.33;;;16.10;99.90;;;;;;4919990;29;20065;-83
2023/10/05 02:24:18;;;;;;;41.53;25.40;;;16.10;99.90;;;;;;4919815;29;20035;-84
2023/10/05 02:27:26;;;;;;;37.28;25.33;;;16.00;99.90;;;;;;4920111;29;20023;-84
2023/10/05 02:29:46;;;;;;;36.45;23.85;;;16.00;99.90;;;;;;4933962;29;20062;-84
2023/10/05 02:32:21;;;;;;;39.60;23.77;;;16.10;99.90;;;;;;4919699;29;20054;-83
2023/10/05 02:35:17;;;;;;;35.15;23.10;;;16.10;99.90;;;;;;4920182;29;20429;-84
2023/10/05 02:37:49;;;;;;;38.72;23.38;;;16.20;99.90;;;;;;4919944;29;20031;-84
2023/10/05 02:40:16;;;;;;;40.22;24.15;;;16.10;99.90;;;;;;4918973;29;20036;-83
2023/10/05 02:42:42;;;;;;;31.27;23.42;;;16.00;99.90;;;;;;4935699;29;20059;-83
2023/10/05 02:45:11;;;;;;;35.78;24.02;;;16.00;99.90;;;;;;4935568;29;20059;-83
2023/10/05 02:47:37;;;;;;;35.85;23.33;;;16.00;99.90;;;;;;4919729;29;20032;-83
2023/10/05 02:50:05;;;;;;;34.22;23.17;;;16.10;99.90;;;;;;4936007;29;20040;-83
2023/10/05 02:52:33;;;;;;;37.53;24.10;;;16.10;99.90;;;;;;4935417;29;20070;-83
2023/10/05 02:54:59;;;;;;;35.35;23.00;;;16.10;99.90;;;;;;4919743;29;20090;-83
2023/10/05 02:57:26;;;;;;;35.97;23.33;;;16.10;99.90;;;;;;4919657;29;20052;-83
2023/10/05 02:59:53;;;;;;;39.25;22.52;;;16.10;99.90;;;;;;4919208;29;20528;-83
2023/10/05 03:02:19;;;;;;;36.28;22.63;;;16.10;99.90;;;;;;4919913;29;20496;-82
2023/10/05 03:04:58;;;;;;;34.03;21.58;;;16.10;99.90;;;;;;4919113;29;20557;-80
2023/10/05 03:07:27;;;;;;;38.30;22.55;;;16.00;99.90;;;;;;4936117;29;20489;-79
2023/10/05 03:09:59;;;;;;;33.97;21.60;;;16.00;99.90;;;;;;4935976;29;20570;-79
2023/10/05 03:12:27;;;;;;;30.30;20.60;;;15.90;99.90;;;;;;4931587;29;20127;-80
2023/10/05 03:15:04;;;;;;;30.98;21.42;;;16.00;99.90;;;;;;4916053;29;20039;-80
2023/10/05 03:17:32;;;;;;;31.58;20.88;;;16.00;99.90;;;;;;4918107;29;20489;-81
2023/10/05 03:19:58;;;;;;;30.73;20.98;;;16.00;99.90;;;;;;4900029;29;20047;-81
2023/10/05 03:22:25;;;;;;;33.22;20.58;;;16.10;99.90;;;;;;4918477;29;20059;-81
2023/10/05 03:24:53;;;;;;;31.73;20.33;;;16.20;99.90;;;;;;4919113;29;20405;-81
2023/10/05 03:27:22;;;;;;;32.88;20.75;;;16.20;99.90;;;;;;4918913;29;20405;-80
2023/10/05 03:29:52;;;;;;;27.83;20.23;;;16.10;99.90;;;;;;4934583;29;20036;-80
2023/10/05 03:32:19;;;;;;;31.85;20.98;;;16.10;99.90;;;;;;4934717;29;20035;-80
2023/10/05 03:35:04;;;;;;;29.73;20.40;;;16.20;99.90;;;;;;4934515;29;20035;-79
2023/10/05 03:37:31;;;;;;;28.92;19.92;;;16.30;99.90;;;;;;4934567;29;20023;-80
2023/10/05 03:42:31;;;;;;;27.38;20.08;;;16.00;99.90;;;;;;4923252;29;20031;-81
2023/10/05 03:45:04;;;;;;;30.30;20.73;;;16.00;99.90;;;;;;4918606;29;20063;-83
2023/10/05 03:47:37;;;;;;;26.70;18.67;;;16.00;99.90;;;;;;4934468;29;20512;-80
2023/10/05 03:50:16;;;;;;;29.92;19.48;;;15.90;99.90;;;;;;4918736;29;20397;-81
2023/10/05 03:52:46;;;;;;;32.90;20.45;;;15.80;99.90;;;;;;4902672;29;20028;-81
2023/10/05 03:55:18;;;;;;;32.05;20.67;;;15.80;99.90;;;;;;4918973;29;20032;-82
2023/10/05 03:57:49;;;;;;;30.02;19.27;;;15.80;99.90;;;;;;4903939;29;20040;-82
2023/10/05 04:00:58;;;;;;;29.92;18.67;;;15.70;99.90;;;;;;4904160;29;20084;-83
2023/10/05 04:03:06;;;;;;;28.75;20.23;;;15.60;99.90;;;;;;4933171;29;20397;-82
2023/10/05 04:05:33;;;;;;;28.65;19.88;;;15.70;99.90;;;;;;4922332;29;20375;-82
2023/10/05 04:08:22;;;;;;;33.20;20.40;;;15.60;99.90;;;;;;4923329;29;20035;-85
2023/10/05 04:10:46;;;;;;;30.60;20.40;;;15.60;99.90;;;;;;4938605;29;20067;-84
2023/10/05 04:13:24;;;;;;;29.63;19.77;;;15.60;99.90;;;;;;4922953;29;20024;-85
2023/10/05 04:15:51;;;;;;;27.90;20.48;;;15.60;99.90;;;;;;4923174;29;20042;-85
2023/10/05 04:18:20;;;;;;;26.27;18.85;;;15.60;99.90;;;;;;4923686;29;20625;-85
2023/10/05 04:20:50;;;;;;;25.20;18.95;;;15.60;99.90;;;;;;4939492;29;20044;-84
2023/10/05 04:23:25;;;;;;;27.10;18.70;;;15.60;99.90;;;;;;4922528;29;20031;-83
2023/10/05 04:25:54;;;;;;;29.95;19.13;;;15.60;99.90;;;;;;4922786;29;20493;-84
2023/10/05 04:28:51;;;;;;;22.70;17.98;;;15.70;99.90;;;;;;4922661;29;20024;-84
2023/10/05 04:31:14;;;;;;;22.98;16.65;;;15.70;99.90;;;;;;4934766;29;20040;-84
2023/10/05 04:33:43;;;;;;;21.77;15.27;;;15.80;99.90;;;;;;4919252;29;20536;-83
2023/10/05 04:36:10;;;;;;;16.70;14.27;;;15.90;99.90;;;;;;4903918;29;20052;-85
2023/10/05 04:38:37;;;;;;;20.10;15.20;;;16.00;99.90;;;;;;4924545;29;20039;-86
2023/10/05 04:41:05;;;;;;;21.60;16.30;;;15.90;99.90;;;;;;4907648;29;20028;-86
2023/10/05 04:43:31;;;;;;;21.90;15.65;;;15.90;99.90;;;;;;4909957;29;20036;-86
2023/10/05 04:46:05;;;;;;;23.00;15.88;;;15.80;99.90;;;;;;4908640;29;20028;-86
2023/10/05 04:48:31;;;;;;;19.00;14.23;;;15.80;99.90;;;;;;4909745;29;20032;-86
2023/10/05 04:51:01;;;;;;;18.75;14.30;;;15.80;99.90;;;;;;4912665;29;20060;-86
2023/10/05 04:53:30;;;;;;;17.73;14.15;;;15.80;99.90;;;;;;4921725;29;20036;-86
2023/10/05 04:56:27;;;;;;;22.08;14.65;;;15.90;99.90;;;;;;4904229;29;20088;-85
2023/10/05 05:07:09;;;;;;;17.08;14.90;;;15.90;99.90;;;;;;4938464;29;20123;-87
2023/10/05 05:09:41;;;;;;;15.80;13.93;;;15.90;99.90;;;;;;4922492;29;20028;-87
2023/10/05 05:12:18;;;;;;;14.73;13.07;;;15.90;99.90;;;;;;4922090;29;20075;-84
2023/10/05 05:14:45;;;;;;;14.80;13.30;;;16.00;99.90;;;;;;4922302;29;20114;-86
2023/10/05 05:17:23;;;;;;;14.55;13.25;;;16.10;99.90;;;;;;4925138;29;20031;-85
2023/10/05 05:19:53;;;;;;;19.33;14.75;;;16.10;99.90;;;;;;4926276;29;20112;-86
2023/10/05 05:22:20;;;;;;;16.10;13.85;;;16.30;99.90;;;;;;4927085;29;20028;-86
2023/10/05 05:24:47;;;;;;;21.08;14.85;;;16.30;99.90;;;;;;4926148;29;20039;-85
2023/10/05 05:29:51;;;;;;;28.20;17.75;;;16.50;99.90;;;;;;4941927;29;20091;-86
2023/10/05 05:32:22;;;;;;;47.78;20.73;;;16.50;99.90;;;;;;4922820;29;20043;-85
2023/10/05 05:34:50;;;;;;;62.08;21.55;;;16.50;99.90;;;;;;4938187;29;20027;-84
2023/10/05 05:37:25;;;;;;;66.78;21.40;;;16.60;99.90;;;;;;4921400;29;20020;-85
2023/10/05 05:39:54;;;;;;;89.50;22.80;;;16.70;99.90;;;;;;4937078;29;20401;-82
2023/10/05 05:42:20;;;;;;;129.40;24.30;;;16.70;99.90;;;;;;4937514;29;20024;-84
2023/10/05 05:44:48;;;;;;;82.22;24.35;;;16.70;99.90;;;;;;4921149;29;20035;-84
2023/10/05 05:47:14;;;;;;;65.90;21.77;;;16.80;99.90;;;;;;4922102;29;20024;-86
2023/10/05 05:49:45;;;;;;;59.47;23.40;;;16.90;99.90;;;;;;4922688;29;20028;-84
2023/10/05 05:52:13;;;;;;;57.65;22.92;;;17.10;99.90;;;;;;4922296;29;20035;-85
2023/10/05 05:54:53;;;;;;;74.10;23.52;;;17.20;99.90;;;;;;4937346;29;20114;-88
2023/10/05 05:57:20;;;;;;;67.38;23.15;;;17.30;99.90;;;;;;4922621;29;20036;-87
2023/10/05 05:59:47;;;;;;;44.08;21.30;;;17.50;99.90;;;;;;4922369;29;20062;-85
2023/10/05 06:02:13;;;;;;;56.25;22.38;;;17.60;99.90;;;;;;4920509;29;20756;-83
2023/10/05 06:04:42;;;;;;;68.07;21.50;;;17.70;99.90;;;;;;4922445;29;20123;-85
2023/10/05 06:07:13;;;;;;;48.50;21.73;;;17.80;99.90;;;;;;4937435;29;20074;-85
2023/10/05 06:09:47;;;;;;;34.67;21.20;;;18.00;99.90;;;;;;4936708;29;20489;-85
2023/10/05 06:12:15;;;;;;;42.05;23.55;;;18.20;99.90;;;;;;4937150;29;20028;-85
2023/10/05 06:14:42;;;;;;;39.13;23.25;;;18.50;99.90;;;;;;4936398;29;20027;-84
2023/10/05 06:17:09;;;;;;;52.15;24.33;;;18.60;99.90;;;;;;4937062;29;20043;-85
2023/10/05 06:19:36;;;;;;;76.95;24.48;;;18.80;99.90;;;;;;4920880;29;20065;-85
2023/10/05 06:22:07;;;;;;;42.63;24.58;;;18.90;99.90;;;;;;4936422;29;20035;-86
2023/10/05 06:24:42;;;;;;;34.92;23.27;;;19.30;99.90;;;;;;4920872;29;20170;-85
2023/10/05 06:27:09;;;;;;;34.78;24.65;;;19.60;99.90;;;;;;4937152;29;20390;-85
2023/10/05 06:29:41;;;;;;;35.05;24.10;;;20.00;99.90;;;;;;4920876;29;20094;-85
2023/10/05 06:32:09;;;;;;;28.65;24.48;;;20.30;99.90;;;;;;4937351;29;20499;-82
2023/10/05 06:34:38;;;;;;;31.98;25.25;;;20.60;99.90;;;;;;4935531;29;20061;-82
2023/10/05 06:37:04;;;;;;;33.97;26.45;;;21.00;99.90;;;;;;4935219;29;20028;-83
2023/10/05 06:39:30;;;;;;;33.05;27.83;;;21.50;99.90;;;;;;4936630;29;20032;-83
2023/10/05 06:41:57;;;;;;;36.97;29.40;;;21.90;99.90;;;;;;4935515;29;20032;-82
2023/10/05 06:44:28;;;;;;;36.45;32.03;;;22.60;99.90;;;;;;4935172;29;20098;-82
2023/10/05 06:46:55;;;;;;;38.15;29.88;;;23.10;99.90;;;;;;4936459;29;20028;-82
2023/10/05 06:49:22;;;;;;;38.80;29.58;;;23.30;99.90;;;;;;4935155;29;20138;-82
2023/10/05 06:51:49;;;;;;;37.63;31.13;;;24.00;99.90;;;;;;4936272;29;20499;-82
2023/10/05 06:54:15;;;;;;;42.83;32.45;;;24.00;99.90;;;;;;4934914;29;20107;-82
2023/10/05 06:56:47;;;;;;;36.28;32.42;;;24.20;99.90;;;;;;4936145;29;20024;-82
2023/10/05 06:59:14;;;;;;;42.97;35.67;;;24.30;99.90;;;;;;4935959;29;20131;-82
2023/10/05 07:01:44;;;;;;;39.53;35.20;;;24.80;99.90;;;;;;4936166;29;20036;-81
2023/10/05 07:04:12;;;;;;;42.30;34.65;;;25.30;99.90;;;;;;4936177;29;20024;-80
2023/10/05 07:06:38;;;;;;;37.53;33.65;;;24.80;99.90;;;;;;4936081;29;20110;-80
2023/10/05 07:09:04;;;;;;;38.58;34.60;;;25.00;99.90;;;;;;4936336;29;20027;-80
2023/10/05 07:11:34;;;;;;;35.83;32.08;;;25.30;99.90;;;;;;4912551;29;20032;-80
2023/10/05 07:14:00;;;;;;;35.78;31.90;;;25.30;99.90;;;;;;4931750;29;20024;-79
2023/10/05 07:16:28;;;;;;;40.03;34.35;;;25.10;99.90;;;;;;4931586;29;20103;-80
2023/10/05 07:18:55;;;;;;;41.95;34.55;;;25.70;99.90;;;;;;4916849;29;20024;-80
2023/10/05 07:21:21;;;;;;;40.95;33.83;;;25.40;99.90;;;;;;4934510;29;20028;-81
2023/10/05 07:23:47;;;;;;;41.47;35.38;;;25.40;99.90;;;;;;4936019;29;20230;-80
2023/10/05 07:26:14;;;;;;;37.42;33.63;;;25.50;99.90;;;;;;4935557;29;20028;-80
2023/10/05 07:28:41;;;;;;;40.17;35.90;;;25.60;99.90;;;;;;4934450;29;20422;-80
2023/10/05 07:31:07;;;;;;;37.20;33.47;;;25.60;99.90;;;;;;4934216;29;20016;-80
2023/10/05 07:33:33;;;;;;;36.55;32.85;;;25.60;99.90;;;;;;4934588;29;20023;-81
2023/10/05 07:36:02;;;;;;;38.60;34.72;;;24.80;99.90;;;;;;4935740;29;20030;-81
2023/10/05 07:38:29;;;;;;;40.33;34.58;;;25.00;99.90;;;;;;4918653;29;20067;-69
2023/10/05 07:40:56;;;;;;;39.72;33.63;;;25.30;99.90;;;;;;4936297;29;20030;-86
2023/10/05 07:43:27;;;;;;;41.80;35.58;;;25.70;99.90;;;;;;4935350;29;20031;-86
2023/10/05 07:45:54;;;;;;;38.88;34.63;;;26.10;99.90;;;;;;4935744;29;20043;-88
2023/10/05 07:48:20;;;;;;;42.60;36.90;;;26.20;99.90;;;;;;4919398;29;20047;-88
2023/10/05 07:50:51;;;;;;;42.17;36.65;;;26.90;99.90;;;;;;4935265;29;20035;-85
2023/10/05 07:53:19;;;;;;;45.35;36.45;;;27.30;99.90;;;;;;4935321;29;20031;-82
2023/10/05 07:55:47;;;;;;;41.00;33.88;;;26.90;99.90;;;;;;4919843;29;20043;-88
2023/10/05 07:58:14;;;;;;;39.25;35.03;;;26.90;99.90;;;;;;4936697;29;20038;-88
2023/10/05 08:00:42;;;;;;;44.40;35.95;;;26.60;99.90;;;;;;4920128;29;20052;-89
2023/10/05 08:03:17;;;;;;;37.30;33.67;;;27.20;99.90;;;;;;4935713;29;20032;-88
2023/10/05 08:05:48;;;;;;;36.95;33.08;;;27.00;99.90;;;;;;4920280;29;20028;-85
2023/10/05 08:08:17;;;;;;;35.92;32.28;;;26.70;99.90;;;;;;4936331;29;20071;-89
2023/10/05 08:10:43;;;;;;;37.33;33.55;;;26.30;99.90;;;;;;4920323;29;20028;-89
2023/10/05 08:13:10;;;;;;;37.17;33.67;;;26.60;99.90;;;;;;4938810;29;20095;-90
2023/10/05 08:15:38;;;;;;;36.13;32.63;;;26.80;99.90;;;;;;4924997;29;20036;-89
2023/10/05 08:18:05;;;;;;;36.50;32.72;;;26.70;99.90;;;;;;4926413;29;20042;-89
2023/10/05 08:20:31;;;;;;;35.15;32.00;;;26.90;99.90;;;;;;4922486;29;20458;-89
2023/10/05 08:22:57;;;;;;;36.10;32.83;;;26.50;99.90;;;;;;4936428;29;20060;-88
2023/10/05 08:25:28;;;;;;;36.30;32.80;;;26.90;99.90;;;;;;4936016;29;20055;-90
2023/10/05 08:27:55;;;;;;;34.75;31.52;;;27.10;99.90;;;;;;4937562;29;20548;-87
2023/10/05 08:30:26;;;;;;;35.20;31.98;;;26.90;99.90;;;;;;4924666;29;20028;-88
2023/10/05 08:32:56;;;;;;;35.42;32.22;;;27.10;99.90;;;;;;4940507;29;20035;-86
2023/10/05 08:35:22;;;;;;;34.75;31.42;;;27.60;99.90;;;;;;4921000;29;20086;-87
2023/10/05 08:37:49;;;;;;;34.20;30.90;;;27.30;99.90;;;;;;4923152;29;20584;-88
2023/10/05 08:43:12;;;;;;;34.08;30.95;;;27.10;99.90;;;;;;4938687;29;20120;-85
2023/10/05 08:45:51;;;;;;;34.17;31.15;;;27.20;99.90;;;;;;4923237;29;20046;-86
2023/10/05 08:48:30;;;;;;;33.53;30.10;;;26.80;99.90;;;;;;4922648;29;20115;-85
2023/10/05 08:51:15;;;;;;;33.47;30.50;;;26.70;99.90;;;;;;4922564;29;20031;-85
2023/10/05 08:54:02;;;;;;;34.90;31.40;;;26.70;99.90;;;;;;4922762;29;20118;-85
2023/10/05 08:56:31;;;;;;;33.58;30.58;;;26.70;99.90;;;;;;4922833;29;20485;-84
2023/10/05 08:59:02;;;;;;;34.53;31.50;;;27.00;99.90;;;;;;4922199;29;20047;-85
2023/10/05 09:01:33;;;;;;;35.30;31.83;;;26.90;99.90;;;;;;4919407;29;20042;-85
2023/10/05 09:06:52;;;;;;;34.90;31.55;;;27.00;99.90;;;;;;4919365;29;20039;-85
2023/10/05 09:09:54;;;;;;;33.83;30.83;;;27.20;99.90;;;;;;4933794;29;20552;-85
2023/10/05 09:12:35;;;;;;;35.08;31.65;;;27.00;99.90;;;;;;4922647;29;20028;-85
2023/10/05 09:15:15;;;;;;;34.85;31.58;;;26.80;99.90;;;;;;4922529;29;20032;-86
2023/10/05 09:17:59;;;;;;;32.45;29.65;;;26.60;99.90;;;;;;4938278;29;20061;-85
2023/10/05 09:20:38;;;;;;;35.85;31.60;;;26.60;99.90;;;;;;4922207;29;20486;-85
2023/10/05 09:23:07;;;;;;;33.88;30.88;;;26.60;99.90;;;;;;4922521;29;20116;-85
2023/10/05 09:25:36;;;;;;;34.03;30.67;;;26.40;99.90;;;;;;4922708;29;20032;-86
2023/10/05 09:28:09;;;;;;;33.38;30.45;;;26.40;99.90;;;;;;4937980;29;20024;-85
2023/10/05 09:30:59;;;;;;;34.00;30.83;;;26.50;99.90;;;;;;4931438;29;20402;-86
2023/10/05 09:33:34;;;;;;;35.50;31.73;;;26.70;99.90;;;;;;4918897;29;20331;-86
2023/10/05 09:36:19;;;;;;;35.08;31.80;;;26.90;99.90;;;;;;4918802;29;20040;-86
2023/10/05 09:38:46;;;;;;;35.67;32.22;;;27.00;99.90;;;;;;4918513;29;20032;-86
2023/10/05 09:41:20;;;;;;;34.42;31.42;;;27.10;99.90;;;;;;4934732;29;20040;-86
2023/10/05 09:44:00;;;;;;;34.75;31.63;;;27.20;99.90;;;;;;4934528;29;20048;-86
2023/10/05 09:46:27;;;;;;;34.35;31.55;;;27.30;99.90;;;;;;4934797;29;20071;-86
2023/10/05 09:48:55;;;;;;;35.95;32.88;;;27.50;99.90;;;;;;4934682;29;20086;-86
2023/10/05 09:51:23;;;;;;;35.47;32.22;;;27.60;99.90;;;;;;4937105;29;20441;-86
2023/10/05 09:53:56;;;;;;;36.35;33.05;;;27.30;99.90;;;;;;4921871;29;20110;-86
2023/10/05 09:56:25;;;;;;;34.63;31.77;;;27.40;99.90;;;;;;4921935;29;20039;-87
2023/10/05 09:58:53;;;;;;;36.47;32.90;;;27.30;99.90;;;;;;4919528;29;20095;-86
2023/10/05 10:01:24;;;;;;;36.15;32.83;;;27.30;99.90;;;;;;4921712;29;20119;-87
2023/10/05 10:03:55;;;;;;;35.92;32.72;;;27.20;99.90;;;;;;4921642;29;20058;-87
2023/10/05 10:06:28;;;;;;;36.45;32.90;;;27.20;99.90;;;;;;4921388;29;20032;-87
2023/10/05 10:09:09;;;;;;;35.72;32.55;;;27.40;99.90;;;;;;4921357;29;20362;-85
2023/10/05 10:11:36;;;;;;;35.72;32.63;;;27.70;99.90;;;;;;4921435;29;20035;-87
2023/10/05 10:14:13;;;;;;;35.47;32.28;;;27.50;99.90;;;;;;4921615;29;20042;-87
2023/10/05 10:16:46;;;;;;;35.85;32.38;;;27.50;99.90;;;;;;4921577;29;20375;-87
2023/10/05 10:19:20;;;;;;;35.38;32.38;;;27.50;99.90;;;;;;4921119;29;20031;-87
2023/10/05 10:22:07;;;;;;;36.28;32.75;;;27.40;99.90;;;;;;4921027;29;20035;-87
2023/10/05 10:24:34;;;;;;;34.92;31.75;;;27.70;99.90;;;;;;4936200;29;20055;-87
2023/10/05 10:27:15;;;;;;;35.30;32.20;;;27.80;99.90;;;;;;4921034;29;20086;-87
2023/10/05 10:29:45;;;;;;;35.10;32.05;;;27.90;99.90;;;;;;4921183;29;20079;-87
2023/10/05 10:32:18;;;;;;;35.67;32.50;;;28.00;99.90;;;;;;4920822;29;20036;-86
2023/10/05 10:35:26;;;;;;;36.65;33.28;;;28.10;99.90;;;;;;4921077;29;20023;-87
2023/10/05 10:38:21;;;;;;;36.35;32.80;;;28.10;99.90;;;;;;4922081;29;20046;-87
2023/10/05 10:41:07;;;;;;;35.85;32.50;;;28.20;99.90;;;;;;4920726;29;20147;-87
2023/10/05 10:43:40;;;;;;;;;;;28.10;99.90;;;;;;4902188;29;20394;-87
2023/10/05 10:46:13;;;;;;;35.97;32.53;;;27.80;99.90;;;;;;4900615;29;19967;-87
2023/10/05 10:48:57;;;;;;;35.77;32.47;;;27.80;99.90;;;;;;4901748;29;20087;-87
2023/10/05 10:51:40;;;;;;;35.63;32.40;;;27.60;99.90;;;;;;4907078;29;20044;-86
2023/10/05 10:54:42;;;;;;;35.67;32.58;;;27.60;99.90;;;;;;4903022;29;20138;-87
2023/10/05 10:57:28;;;;;;;37.13;33.85;;;27.30;99.90;;;;;;4901808;29;20036;-87
2023/10/05 11:00:54;;;;;;;36.42;33.00;;;27.40;99.90;;;;;;4897869;29;20525;-88
2023/10/05 11:03:27;;;;;;;35.20;32.10;;;27.90;99.90;;;;;;4916055;29;20115;-82
2023/10/05 11:05:54;;;;;;;36.50;33.22;;;27.80;99.90;;;;;;4911739;29;20103;-83
2023/10/05 11:08:21;;;;;;;35.10;32.25;;;27.60;99.90;;;;;;4936090;29;20047;-83
2023/10/05 11:11:15;;;;;;;35.63;32.42;;;27.80;99.90;;;;;;4919106;29;20094;-82
2023/10/05 11:14:05;;;;;;;35.63;32.47;;;28.00;99.90;;;;;;4915907;29;20032;-83
2023/10/05 11:16:45;;;;;;;34.78;31.80;;;28.20;99.90;;;;;;4900499;29;20038;-83
2023/10/05 11:19:13;;;;;;;35.38;32.00;;;27.90;99.90;;;;;;4915707;29;20445;-83
2023/10/05 11:21:46;;;;;;;34.55;31.65;;;27.80;99.90;;;;;;4905958;29;20051;-83
2023/10/05 11:24:16;;;;;;;35.42;32.38;;;27.30;99.90;;;;;;4934767;29;20483;-83
2023/10/05 11:27:05;;;;;;;35.90;32.42;;;27.10;99.90;;;;;;4934704;29;20055;-83
2023/10/05 11:29:43;;;;;;;35.55;32.53;;;27.40;99.90;;;;;;4934896;29;20501;-83
2023/10/05 11:32:19;;;;;;;35.63;32.63;;;27.60;99.90;;;;;;4934621;29;20087;-83
2023/10/05 11:34:47;;;;;;;34.72;31.70;;;27.80;99.90;;;;;;4934646;29;20042;-83
2023/10/05 11:37:18;;;;;;;34.75;31.45;;;27.40;99.90;;;;;;4918838;29;20031;-83
2023/10/05 11:39:58;;;;;;;34.60;31.60;;;27.20;99.90;;;;;;4934426;29;20032;-83
2023/10/05 11:42:25;;;;;;;34.45;31.38;;;27.00;99.90;;;;;;4934545;29;20086;-83
2023/10/05 11:44:56;;;;;;;33.78;30.73;;;27.20;99.90;;;;;;4918741;29;20034;-83
2023/10/05 11:47:35;;;;;;;34.55;31.48;;;27.10;99.90;;;;;;4918502;29;20405;-82
2023/10/05 11:50:08;;;;;;;34.83;31.52;;;27.10;99.90;;;;;;4934254;29;20091;-82
2023/10/05 11:52:38;;;;;;;34.65;31.42;;;26.90;99.90;;;;;;4935733;29;20059;-82
2023/10/05 11:55:11;;;;;;;34.42;31.33;;;26.80;99.90;;;;;;4918674;29;20142;-82
2023/10/05 11:57:38;;;;;;;34.60;31.33;;;26.70;99.90;;;;;;4918520;29;20035;-81
2023/10/05 12:00:06;;;;;;;34.03;30.98;;;26.90;99.90;;;;;;4918160;29;20138;-81
2023/10/05 12:02:35;;;;;;;34.15;30.63;;;26.90;99.90;;;;;;4934314;29;20036;-82
2023/10/05 12:05:03;;;;;;;34.58;31.33;;;26.60;99.90;;;;;;4934450;29;20090;-81
2023/10/05 12:07:30;;;;;;;35.13;32.00;;;26.50;99.90;;;;;;4934327;29;20024;-81
2023/10/05 12:09:56;;;;;;;34.53;31.23;;;26.30;99.90;;;;;;4934337;29;20088;-85
2023/10/05 12:12:23;;;;;;;33.33;30.20;;;26.10;99.90;;;;;;4935019;29;20038;-83
2023/10/05 12:14:50;;;;;;;37.70;34.08;;;26.10;99.90;;;;;;4922226;29;20031;-82
2023/10/05 12:17:17;;;;;;;35.85;32.40;;;25.90;99.90;;;;;;4922081;29;20030;-83
2023/10/05 12:19:44;;;;;;;36.90;33.50;;;25.70;99.90;;;;;;4938241;29;20035;-84
2023/10/05 12:22:13;;;;;;;37.75;33.83;;;25.60;99.90;;;;;;4918932;29;20036;-83
2023/10/05 12:24:41;;;;;;;35.83;32.28;;;25.50;99.90;;;;;;4919033;29;20032;-83
2023/10/05 12:27:14;;;;;;;35.10;31.60;;;25.60;99.90;;;;;;4934775;29;20032;-83
2023/10/05 12:29:44;;;;;;;34.40;31.38;;;25.90;99.90;;;;;;4918739;29;20024;-82
2023/10/05 12:32:13;;;;;;;34.95;31.65;;;26.00;99.90;;;;;;4934868;29;20059;-83
2023/10/05 12:34:44;;;;;;;33.95;30.88;;;26.10;99.90;;;;;;4918532;29;20030;-82
2023/10/05 12:37:17;;;;;;;34.42;31.35;;;26.20;99.90;;;;;;4919866;29;20063;-83
2023/10/05 12:39:45;;;;;;;36.45;32.72;;;26.40;99.90;;;;;;4934474;29;20048;-83
2023/10/05 12:42:11;;;;;;;34.88;31.58;;;26.60;99.90;;;;;;4918504;29;20099;-83
2023/10/05 12:44:39;;;;;;;35.22;31.55;;;26.70;99.90;;;;;;4902851;29;20458;-84
2023/10/05 12:47:07;;;;;;;34.72;31.35;;;26.70;99.90;;;;;;4918618;29;20100;-83
2023/10/05 12:49:34;;;;;;;35.03;31.65;;;26.60;99.90;;;;;;4919672;29;20036;-82
2023/10/05 12:52:00;;;;;;;34.95;31.55;;;26.60;99.90;;;;;;4921762;29;20027;-82
2023/10/05 12:54:29;;;;;;;34.47;31.55;;;26.50;99.90;;;;;;4918295;29;20044;-83
2023/10/05 12:56:57;;;;;;;34.28;30.73;;;26.50;99.90;;;;;;4934136;29;20036;-83
2023/10/05 12:59:24;;;;;;;34.25;30.92;;;26.50;99.90;;;;;;4932821;29;20493;-81
2023/10/05 13:01:52;;;;;;;34.35;31.25;;;26.60;99.90;;;;;;4920849;29;20138;-82
2023/10/05 13:04:20;;;;;;;34.83;31.27;;;26.60;99.90;;;;;;4937277;29;20119;-81
2023/10/05 13:06:47;;;;;;;34.95;31.75;;;26.70;99.90;;;;;;4921309;29;20039;-81
2023/10/05 13:09:18;;;;;;;35.72;32.25;;;26.20;99.90;;;;;;4921241;29;20510;-82
2023/10/05 13:11:47;;;;;;;35.15;31.58;;;26.20;99.90;;;;;;4938190;29;20106;-80
2023/10/05 13:14:14;;;;;;;33.92;30.95;;;26.60;99.90;;;;;;4916644;29;20027;-80
2023/10/05 13:16:44;;;;;;;34.50;31.40;;;26.40;99.90;;;;;;4918321;29;20036;-80